createdAt,value
2022-07-26T00:01:49.069Z,23.65
2022-07-26T00:04:18.219Z,23.65
2022-07-26T00:06:45.981Z,23.65
2022-07-26T00:09:13.695Z,23.66
2022-07-26T00:11:41.432Z,23.65
2022-07-26T00:14:09.258Z,23.64
2022-07-26T00:16:37.390Z,23.64
2022-07-26T00:19:05.652Z,23.64
2022-07-26T00:21:36.814Z,23.63
2022-07-26T00:24:09.448Z,23.64
2022-07-26T00:26:37.210Z,23.64
2022-07-26T00:29:06.010Z,23.63
2022-07-26T00:31:34.223Z,23.64
2022-07-26T00:34:02.048Z,23.64
2022-07-26T00:36:30.103Z,23.64
2022-07-26T00:38:59.298Z,23.64
2022-07-26T00:41:27.112Z,23.63
2022-07-26T00:43:58.687Z,23.62
2022-07-26T00:46:26.507Z,23.62
2022-07-26T00:48:54.483Z,23.62
2022-07-26T00:51:22.524Z,23.61
2022-07-26T00:53:50.434Z,23.59
2022-07-26T00:56:19.577Z,23.59
2022-07-26T00:58:47.295Z,23.60
2022-07-26T01:01:15.476Z,23.58
2022-07-26T01:03:43.294Z,23.59
2022-07-26T01:06:11.617Z,23.60
2022-07-26T01:08:39.416Z,23.60
2022-07-26T01:11:07.408Z,23.60
2022-07-26T01:13:36.864Z,23.58
2022-07-26T01:16:04.769Z,23.56
2022-07-26T01:18:32.586Z,23.54
2022-07-26T01:21:00.371Z,23.56
2022-07-26T01:23:31.129Z,23.54
2022-07-26T01:25:59.926Z,23.53
2022-07-26T01:28:28.044Z,23.53
2022-07-26T01:30:55.801Z,23.53
2022-07-26T01:33:23.597Z,23.53
2022-07-26T01:35:51.451Z,23.56
2022-07-26T01:38:19.342Z,23.54
2022-07-26T01:40:48.600Z,23.53
2022-07-26T01:43:16.505Z,23.54
2022-07-26T01:45:44.498Z,23.56
2022-07-26T01:48:12.505Z,23.54
2022-07-26T01:50:40.419Z,23.54
2022-07-26T01:53:08.250Z,23.54
2022-07-26T01:55:36.370Z,23.53
2022-07-26T01:58:05.785Z,23.53
2022-07-26T02:00:33.986Z,23.54
2022-07-26T02:03:02.052Z,23.53
2022-07-26T02:05:30.058Z,23.53
2022-07-26T02:07:58.433Z,23.53
2022-07-26T02:10:48.654Z,23.54
2022-07-26T02:13:18.024Z,23.54
2022-07-26T02:15:45.969Z,23.52
2022-07-26T02:18:14.048Z,23.52
2022-07-26T02:20:41.951Z,23.52
2022-07-26T02:23:10.138Z,23.51
2022-07-26T02:25:37.988Z,23.50
2022-07-26T02:28:06.328Z,23.50
2022-07-26T02:30:35.671Z,23.48
2022-07-26T02:33:03.561Z,23.48
2022-07-26T02:35:32.047Z,23.47
2022-07-26T02:38:03.166Z,23.47
2022-07-26T02:40:31.140Z,23.46
2022-07-26T02:42:58.972Z,23.45
2022-07-26T02:45:31.623Z,23.45
2022-07-26T02:48:00.916Z,23.46
2022-07-26T02:50:28.992Z,23.46
2022-07-26T02:52:57.123Z,23.46
2022-07-26T02:55:25.660Z,23.44
2022-07-26T02:57:53.502Z,23.44
2022-07-26T03:00:23.310Z,23.44
2022-07-26T03:02:51.306Z,23.42
2022-07-26T03:05:20.590Z,23.43
2022-07-26T03:07:48.399Z,23.43
2022-07-26T03:10:16.243Z,23.42
2022-07-26T03:12:43.944Z,23.43
2022-07-26T03:15:12.274Z,23.42
2022-07-26T03:17:40.168Z,23.42
2022-07-26T03:20:09.012Z,23.43
2022-07-26T03:22:38.152Z,23.42
2022-07-26T03:25:06.567Z,23.41
2022-07-26T03:27:34.414Z,23.39
2022-07-26T03:30:02.270Z,23.38
2022-07-26T03:32:29.992Z,23.38
2022-07-26T03:34:57.725Z,23.40
2022-07-26T03:37:25.577Z,23.40
2022-07-26T03:40:15.284Z,23.41
2022-07-26T03:42:43.080Z,23.40
2022-07-26T03:45:11.740Z,23.40
2022-07-26T03:47:39.462Z,23.39
2022-07-26T03:50:08.133Z,23.38
2022-07-26T03:52:35.944Z,23.39
2022-07-26T03:55:24.505Z,23.38
2022-07-26T03:57:52.621Z,23.37
2022-07-26T04:00:20.312Z,23.39
2022-07-26T04:02:48.109Z,23.40
2022-07-26T04:05:15.873Z,23.39
2022-07-26T04:07:43.848Z,23.43
2022-07-26T04:10:20.654Z,23.42
2022-07-26T04:12:48.417Z,23.42
2022-07-26T04:15:19.121Z,23.42
2022-07-26T04:17:48.261Z,23.44
2022-07-26T04:20:16.286Z,23.45
2022-07-26T04:22:44.919Z,23.46
2022-07-26T04:25:12.935Z,23.47
2022-07-26T04:27:40.680Z,23.46
2022-07-26T04:30:14.829Z,23.46
2022-07-26T04:32:46.632Z,23.44
2022-07-26T04:35:15.436Z,23.43
2022-07-26T04:37:43.424Z,23.43
2022-07-26T04:40:11.873Z,23.41
2022-07-26T04:42:40.782Z,23.40
2022-07-26T04:45:10.844Z,23.39
2022-07-26T04:47:38.690Z,23.39
2022-07-26T04:50:09.507Z,23.39
2022-07-26T04:52:37.235Z,23.39
2022-07-26T04:55:05.656Z,23.38
2022-07-26T04:57:33.433Z,23.39
2022-07-26T05:00:20.324Z,23.37
2022-07-26T05:02:49.539Z,23.37
2022-07-26T05:05:18.681Z,23.36
2022-07-26T05:07:47.293Z,23.36
2022-07-26T05:10:15.331Z,23.36
2022-07-26T05:12:43.015Z,23.35
2022-07-26T05:15:14.135Z,23.36
2022-07-26T05:17:42.797Z,23.35
2022-07-26T05:20:12.155Z,23.35
2022-07-26T05:22:41.308Z,23.35
2022-07-26T05:25:09.471Z,23.33
2022-07-26T05:27:37.198Z,23.34
2022-07-26T05:30:05.328Z,23.33
2022-07-26T05:32:33.233Z,23.31
2022-07-26T05:35:00.983Z,23.30
2022-07-26T05:37:28.681Z,23.29
2022-07-26T05:39:57.753Z,23.29
2022-07-26T05:42:25.826Z,23.29
2022-07-26T05:44:53.673Z,23.30
2022-07-26T05:47:23.781Z,23.28
2022-07-26T05:49:51.445Z,23.28
2022-07-26T05:52:19.359Z,23.28
2022-07-26T05:54:47.104Z,23.28
2022-07-26T05:57:16.340Z,23.27
2022-07-26T05:59:44.057Z,23.27
2022-07-26T06:02:11.820Z,23.27
2022-07-26T06:04:39.636Z,23.27
2022-07-26T06:07:07.372Z,23.27
2022-07-26T06:09:35.113Z,23.26
2022-07-26T06:12:02.828Z,23.26
2022-07-26T06:14:31.950Z,23.25
2022-07-26T06:16:59.679Z,23.24
2022-07-26T06:19:27.453Z,23.23
2022-07-26T06:21:55.188Z,23.22
2022-07-26T06:24:23.769Z,23.23
2022-07-26T06:26:56.842Z,23.21
2022-07-26T06:29:29.552Z,23.20
2022-07-26T06:32:02.009Z,23.18
2022-07-26T06:34:29.830Z,23.18
2022-07-26T06:36:57.557Z,23.16
2022-07-26T06:39:25.310Z,23.13
2022-07-26T06:41:53.036Z,23.10
2022-07-26T06:44:20.771Z,23.09
2022-07-26T06:46:48.577Z,23.11
2022-07-26T06:49:22.193Z,23.09
2022-07-26T06:51:50.338Z,23.09
2022-07-26T06:54:18.069Z,23.08
2022-07-26T06:56:45.825Z,23.07
2022-07-26T06:59:13.573Z,23.06
2022-07-26T07:01:51.449Z,23.05
2022-07-26T07:04:29.236Z,23.05
2022-07-26T07:06:57.411Z,23.04
2022-07-26T07:09:25.659Z,23.04
2022-07-26T07:11:57.428Z,23.00
2022-07-26T07:14:28.514Z,22.98
2022-07-26T07:16:56.597Z,22.97
2022-07-26T07:19:24.435Z,22.94
2022-07-26T07:21:53.505Z,22.92
2022-07-26T07:24:21.477Z,22.93
2022-07-26T07:26:50.119Z,22.92
2022-07-26T07:29:21.021Z,22.91
2022-07-26T07:31:49.719Z,22.92
2022-07-26T07:34:18.161Z,22.91
2022-07-26T07:36:47.502Z,22.91
2022-07-26T07:39:17.626Z,22.90
2022-07-26T07:41:45.509Z,22.91
2022-07-26T07:44:13.238Z,22.90
2022-07-26T07:46:41.229Z,22.90
2022-07-26T07:49:10.974Z,22.90
2022-07-26T07:51:39.128Z,22.89
2022-07-26T07:54:07.053Z,22.91
2022-07-26T07:56:37.511Z,22.91
2022-07-26T07:59:05.568Z,22.93
2022-07-26T08:01:39.469Z,22.93
2022-07-26T08:04:08.838Z,22.91
2022-07-26T08:06:36.907Z,22.91
2022-07-26T08:09:05.790Z,22.92
2022-07-26T08:11:34.589Z,22.91
2022-07-26T08:14:03.888Z,22.92
2022-07-26T08:16:31.817Z,22.93
2022-07-26T08:18:59.686Z,22.94
2022-07-26T08:21:29.128Z,22.93
2022-07-26T08:23:57.191Z,22.92
2022-07-26T08:26:25.005Z,22.96
2022-07-26T08:28:58.589Z,22.97
2022-07-26T08:31:29.369Z,22.97
2022-07-26T08:33:57.235Z,22.98
2022-07-26T08:36:31.879Z,22.97
2022-07-26T08:39:00.625Z,22.96
2022-07-26T08:41:28.331Z,22.97
2022-07-26T08:43:56.096Z,22.98
2022-07-26T08:46:25.898Z,23.00
2022-07-26T08:48:56.573Z,23.00
2022-07-26T08:51:25.106Z,23.01
2022-07-26T08:53:53.152Z,23.01
2022-07-26T08:56:20.915Z,23.01
2022-07-26T08:58:48.688Z,23.04
2022-07-26T09:01:16.982Z,23.05
2022-07-26T09:03:45.439Z,23.05
2022-07-26T09:06:18.908Z,23.07
2022-07-26T09:08:47.847Z,23.08
2022-07-26T09:11:32.081Z,23.08
2022-07-26T09:14:00.776Z,23.09
2022-07-26T09:16:28.673Z,23.11
2022-07-26T09:18:57.219Z,23.15
2022-07-26T09:21:30.511Z,23.16
2022-07-26T09:23:58.534Z,23.17
2022-07-26T09:26:26.484Z,23.19
2022-07-26T09:29:08.904Z,23.22
2022-07-26T09:31:37.046Z,23.24
2022-07-26T09:34:05.114Z,23.24
2022-07-26T09:36:34.295Z,23.26
2022-07-26T09:39:02.937Z,23.26
2022-07-26T09:41:31.759Z,23.27
2022-07-26T09:44:00.840Z,23.28
2022-07-26T09:46:29.538Z,23.30
2022-07-26T09:49:10.614Z,23.31
2022-07-26T09:51:41.510Z,23.33
2022-07-26T09:54:10.108Z,23.34
2022-07-26T09:56:48.449Z,23.34
2022-07-26T09:59:16.799Z,23.34
2022-07-26T10:01:44.810Z,23.33
2022-07-26T10:04:12.940Z,23.33
2022-07-26T10:06:42.347Z,23.36
2022-07-26T10:09:11.283Z,23.35
2022-07-26T10:11:43.640Z,23.37
2022-07-26T10:14:37.834Z,23.37
2022-07-26T10:17:42.480Z,23.38
2022-07-26T10:20:19.307Z,23.39
2022-07-26T10:22:53.687Z,23.41
2022-07-26T10:25:45.791Z,23.42
2022-07-26T10:28:24.837Z,23.44
2022-07-26T10:30:52.787Z,23.44
2022-07-26T10:33:20.520Z,23.45
2022-07-26T10:35:48.244Z,23.45
2022-07-26T10:38:26.239Z,23.45
2022-07-26T10:40:57.521Z,23.45
2022-07-26T10:43:42.082Z,23.47
2022-07-26T10:46:28.129Z,23.48
2022-07-26T10:48:57.113Z,23.47
2022-07-26T10:51:25.957Z,23.49
2022-07-26T10:54:01.864Z,23.48
2022-07-26T10:56:33.430Z,23.49
2022-07-26T10:59:01.692Z,23.48
2022-07-26T11:01:34.009Z,23.48
2022-07-26T11:04:01.799Z,23.48
2022-07-26T11:06:30.601Z,23.49
2022-07-26T11:08:58.318Z,23.50
2022-07-26T11:11:31.483Z,23.50
2022-07-26T11:14:07.454Z,23.50
2022-07-26T11:16:39.727Z,23.50
2022-07-26T11:19:15.372Z,23.52
2022-07-26T11:21:43.119Z,23.52
2022-07-26T11:24:11.437Z,23.51
2022-07-26T11:26:43.711Z,23.51
2022-07-26T11:29:16.861Z,23.51
2022-07-26T11:31:51.284Z,23.52
2022-07-26T11:34:29.861Z,23.51
2022-07-26T11:36:58.284Z,23.50
2022-07-26T11:39:28.176Z,23.51
2022-07-26T11:41:59.669Z,23.49
2022-07-26T11:44:27.824Z,23.49
2022-07-26T11:46:57.599Z,23.48
2022-07-26T11:49:51.738Z,23.47
2022-07-26T11:52:14.063Z,23.47
2022-07-26T11:54:45.972Z,23.47
2022-07-26T11:57:15.137Z,23.49
2022-07-26T11:59:42.954Z,23.48
2022-07-26T12:02:10.671Z,23.47
2022-07-26T12:04:39.362Z,23.47
2022-07-26T12:07:10.323Z,23.45
2022-07-26T12:09:38.927Z,23.45
2022-07-26T12:12:08.080Z,23.45
2022-07-26T12:14:38.125Z,23.44
2022-07-26T12:17:13.651Z,23.44
2022-07-26T12:19:42.707Z,23.44
2022-07-26T12:22:12.247Z,23.44
2022-07-26T12:24:45.709Z,23.43
2022-07-26T12:27:15.225Z,23.44
2022-07-26T12:29:45.426Z,23.42
2022-07-26T12:32:14.745Z,23.43
2022-07-26T12:34:43.814Z,23.41
2022-07-26T12:37:13.478Z,23.40
2022-07-26T12:39:41.684Z,23.40
2022-07-26T12:42:22.740Z,23.38
2022-07-26T12:44:52.040Z,23.37
2022-07-26T12:47:19.913Z,23.38
2022-07-26T12:49:47.698Z,23.37
2022-07-26T12:52:16.628Z,23.37
2022-07-26T12:54:45.897Z,23.39
2022-07-26T12:57:13.875Z,23.39
2022-07-26T12:59:44.920Z,23.41
2022-07-26T13:02:14.379Z,23.42
2022-07-26T13:04:42.162Z,23.44
2022-07-26T13:07:09.942Z,23.44
2022-07-26T13:09:37.736Z,23.45
2022-07-26T13:12:06.518Z,23.45
2022-07-26T13:14:34.437Z,23.47
2022-07-26T13:17:02.260Z,23.48
2022-07-26T13:19:31.428Z,23.48
2022-07-26T13:21:59.558Z,23.50
2022-07-26T13:24:27.759Z,23.50
2022-07-26T13:26:56.717Z,23.52
2022-07-26T13:29:29.541Z,23.52
2022-07-26T13:31:59.430Z,23.52
2022-07-26T13:34:30.466Z,23.51
2022-07-26T13:37:08.567Z,23.52
2022-07-26T13:39:36.489Z,23.51
2022-07-26T13:42:04.255Z,23.52
2022-07-26T13:44:31.986Z,23.52
2022-07-26T13:46:59.701Z,23.52
2022-07-26T13:49:27.809Z,23.52
2022-07-26T13:51:58.344Z,23.52
2022-07-26T13:54:28.918Z,23.52
2022-07-26T13:56:56.708Z,23.51
2022-07-26T13:59:25.125Z,23.52
2022-07-26T14:01:53.496Z,23.51
2022-07-26T14:04:21.313Z,23.51
2022-07-26T14:06:49.077Z,23.51
2022-07-26T14:09:17.769Z,23.53
2022-07-26T14:11:46.892Z,23.52
2022-07-26T14:14:14.970Z,23.51
2022-07-26T14:16:42.954Z,23.52
2022-07-26T14:19:14.877Z,23.52
2022-07-26T14:21:59.151Z,23.52
2022-07-26T14:24:28.234Z,23.52
2022-07-26T14:26:59.667Z,23.53
2022-07-26T14:29:28.171Z,23.54
2022-07-26T14:31:56.106Z,23.55
2022-07-26T14:34:24.170Z,23.57
2022-07-26T14:36:52.249Z,23.57
2022-07-26T14:39:19.978Z,23.57
2022-07-26T14:41:48.172Z,23.58
2022-07-26T14:44:17.399Z,23.59
2022-07-26T14:46:46.363Z,23.60
2022-07-26T14:49:14.421Z,23.60
2022-07-26T14:51:42.315Z,23.60
2022-07-26T14:54:10.342Z,23.59
2022-07-26T14:56:38.251Z,23.60
2022-07-26T14:59:06.048Z,23.59
2022-07-26T15:01:35.292Z,23.59
2022-07-26T15:04:02.994Z,23.59
2022-07-26T15:06:30.763Z,23.59
2022-07-26T15:08:58.486Z,23.59
2022-07-26T15:11:26.479Z,23.59
2022-07-26T15:13:54.760Z,23.59
2022-07-26T15:16:22.587Z,23.59
2022-07-26T15:18:51.756Z,23.59
2022-07-26T15:21:19.530Z,23.59
2022-07-26T15:23:47.290Z,23.59
2022-07-26T15:26:15.031Z,23.59
2022-07-26T15:28:42.745Z,23.59
2022-07-26T15:31:10.682Z,23.59
2022-07-26T15:33:38.484Z,23.59
2022-07-26T15:36:07.995Z,23.60
2022-07-26T15:38:35.751Z,23.58
2022-07-26T15:41:03.770Z,23.58
2022-07-26T15:43:48.048Z,23.59
2022-07-26T15:46:17.230Z,23.59
2022-07-26T15:48:45.797Z,23.59
2022-07-26T15:51:15.239Z,23.59
2022-07-26T15:53:46.531Z,23.58
2022-07-26T15:56:14.564Z,23.58
2022-07-26T15:58:42.333Z,23.58
2022-07-26T16:01:12.795Z,23.58
2022-07-26T16:03:40.553Z,23.58
2022-07-26T16:06:08.317Z,23.59
2022-07-26T16:08:52.741Z,23.59
2022-07-26T16:11:25.341Z,23.61
2022-07-26T16:13:53.124Z,23.62
2022-07-26T16:16:30.248Z,23.62
2022-07-26T16:18:58.176Z,23.64
2022-07-26T16:21:25.919Z,23.64
2022-07-26T16:23:54.971Z,23.65
2022-07-26T16:26:23.431Z,23.65
2022-07-26T16:28:51.218Z,23.66
2022-07-26T16:31:19.073Z,23.67
2022-07-26T16:33:46.929Z,23.68
2022-07-26T16:36:15.765Z,23.67
2022-07-26T16:38:43.463Z,23.71
2022-07-26T16:41:12.823Z,23.73
2022-07-26T16:43:40.613Z,23.80
2022-07-26T16:46:08.334Z,23.87
2022-07-26T16:48:36.135Z,23.93
2022-07-26T16:51:04.133Z,24.01
2022-07-26T16:53:31.864Z,24.06
2022-07-26T16:55:59.565Z,24.10
2022-07-26T16:58:28.715Z,24.14
2022-07-26T17:00:56.593Z,24.20
2022-07-26T17:03:24.657Z,24.24
2022-07-26T17:05:52.403Z,24.27
2022-07-26T17:08:20.139Z,24.30
2022-07-26T17:10:47.869Z,24.34
2022-07-26T17:13:15.616Z,24.35
2022-07-26T17:15:44.729Z,24.38
2022-07-26T17:18:13.127Z,24.42
2022-07-26T17:20:41.064Z,24.44
2022-07-26T17:23:08.987Z,24.46
2022-07-26T17:25:36.753Z,24.48
2022-07-26T17:28:04.467Z,24.47
2022-07-26T17:30:32.233Z,24.46
2022-07-26T17:33:01.406Z,24.49
2022-07-26T17:35:29.161Z,24.50
2022-07-26T17:37:56.926Z,24.49
2022-07-26T17:40:25.606Z,24.50
2022-07-26T17:42:53.738Z,24.50
2022-07-26T17:45:21.611Z,24.49
2022-07-26T17:47:49.456Z,24.51
2022-07-26T17:50:35.911Z,24.53
2022-07-26T17:53:05.163Z,24.55
2022-07-26T17:55:33.003Z,24.55
2022-07-26T17:58:00.741Z,24.55
2022-07-26T18:00:29.177Z,24.56
2022-07-26T18:02:57.143Z,24.57
2022-07-26T18:05:33.026Z,24.59
2022-07-26T18:08:02.719Z,24.59
2022-07-26T18:10:30.512Z,24.61
2022-07-26T18:12:58.304Z,24.60
2022-07-26T18:15:26.232Z,24.57
2022-07-26T18:17:54.096Z,24.59
2022-07-26T18:20:21.861Z,24.59
2022-07-26T18:22:54.625Z,24.59
2022-07-26T18:25:22.401Z,24.60
2022-07-26T18:27:50.636Z,24.57
2022-07-26T18:30:18.394Z,24.58
2022-07-26T18:32:46.203Z,24.58
2022-07-26T18:35:14.214Z,24.57
2022-07-26T18:37:41.928Z,24.55
2022-07-26T18:40:11.756Z,24.56
2022-07-26T18:42:39.497Z,24.54
2022-07-26T18:45:08.467Z,24.52
2022-07-26T18:47:36.184Z,24.52
2022-07-26T18:50:03.968Z,24.53
2022-07-26T18:52:32.825Z,24.55
2022-07-26T18:55:02.443Z,24.55
2022-07-26T18:57:31.688Z,24.54
2022-07-26T18:59:59.484Z,24.55
2022-07-26T19:02:27.536Z,24.54
2022-07-26T19:04:55.219Z,24.47
2022-07-26T19:07:22.962Z,24.41
2022-07-26T19:09:54.916Z,24.34
2022-07-26T19:12:25.704Z,24.26
2022-07-26T19:14:54.817Z,24.20
2022-07-26T19:17:22.567Z,24.15
2022-07-26T19:19:50.459Z,24.11
2022-07-26T19:22:18.199Z,24.05
2022-07-26T19:24:45.918Z,24.00
2022-07-26T19:27:14.915Z,23.94
2022-07-26T19:29:42.705Z,23.90
2022-07-26T19:32:11.796Z,23.89
2022-07-26T19:34:39.517Z,23.85
2022-07-26T19:37:07.324Z,23.81
2022-07-26T19:39:35.161Z,23.77
2022-07-26T19:42:02.848Z,23.74
2022-07-26T19:44:30.560Z,23.71
2022-07-26T19:46:58.251Z,23.70
2022-07-26T19:49:27.395Z,23.66
2022-07-26T19:51:55.168Z,23.64
2022-07-26T19:54:22.905Z,23.64
2022-07-26T19:56:50.635Z,23.65
2022-07-26T19:59:23.499Z,23.66
2022-07-26T20:01:52.887Z,23.65
2022-07-26T20:04:20.985Z,23.63
2022-07-26T20:06:50.357Z,23.63
2022-07-26T20:09:18.145Z,23.62
2022-07-26T20:11:50.668Z,23.62
2022-07-26T20:14:18.716Z,23.61
2022-07-26T20:16:46.470Z,23.57
2022-07-26T20:19:14.470Z,23.57
2022-07-26T20:21:42.602Z,23.57
2022-07-26T20:24:11.729Z,23.56
2022-07-26T20:26:39.504Z,23.56
2022-07-26T20:29:07.488Z,23.53
2022-07-26T20:31:35.612Z,23.52
2022-07-26T20:34:03.359Z,23.52
2022-07-26T20:36:31.121Z,23.52
2022-07-26T20:38:59.827Z,23.50
2022-07-26T20:41:33.746Z,23.51
2022-07-26T20:44:01.783Z,23.50
2022-07-26T20:46:29.579Z,23.49
2022-07-26T20:48:57.435Z,23.49
2022-07-26T20:51:25.405Z,23.49
2022-07-26T20:53:53.123Z,23.48
2022-07-26T20:56:20.865Z,23.47
2022-07-26T20:58:49.984Z,23.46
2022-07-26T21:01:17.819Z,23.44
2022-07-26T21:03:45.660Z,23.44
2022-07-26T21:06:13.373Z,23.44
2022-07-26T21:08:42.004Z,23.43
2022-07-26T21:11:09.731Z,23.42
2022-07-26T21:13:37.739Z,23.41
2022-07-26T21:16:09.679Z,23.39
2022-07-26T21:18:38.304Z,23.40
2022-07-26T21:21:06.280Z,23.39
2022-07-26T21:23:34.094Z,23.38
2022-07-26T21:26:01.886Z,23.38
2022-07-26T21:28:29.734Z,23.37
2022-07-26T21:30:57.554Z,23.35
2022-07-26T21:33:26.639Z,23.33
2022-07-26T21:35:54.439Z,23.34
2022-07-26T21:38:22.277Z,23.34
2022-07-26T21:40:49.965Z,23.34
2022-07-26T21:43:17.683Z,23.33
2022-07-26T21:45:45.425Z,23.32
2022-07-26T21:48:13.155Z,23.30
2022-07-26T21:50:42.232Z,23.30
2022-07-26T21:53:09.930Z,23.30
2022-07-26T21:55:37.638Z,23.29
2022-07-26T21:58:05.378Z,23.27
2022-07-26T22:00:33.156Z,23.27
2022-07-26T22:03:00.853Z,23.27
2022-07-26T22:05:38.851Z,23.28
2022-07-26T22:08:08.992Z,23.25
2022-07-26T22:10:44.660Z,23.25
2022-07-26T22:13:12.787Z,23.27
2022-07-26T22:15:40.524Z,23.27
2022-07-26T22:18:09.860Z,23.27
2022-07-26T22:20:38.011Z,23.25
2022-07-26T22:23:06.853Z,23.24
2022-07-26T22:25:36.263Z,23.25
2022-07-26T22:28:04.454Z,23.24
2022-07-26T22:30:32.178Z,23.23
2022-07-26T22:33:00.804Z,23.24
2022-07-26T22:35:32.348Z,23.24
2022-07-26T22:38:04.126Z,23.23
2022-07-26T22:40:32.881Z,23.22
2022-07-26T22:43:02.018Z,23.20
2022-07-26T22:45:30.202Z,23.21
2022-07-26T22:47:58.002Z,23.21
2022-07-26T22:50:25.791Z,23.20
2022-07-26T22:52:53.506Z,23.19
2022-07-26T22:55:21.447Z,23.19
2022-07-26T22:57:49.235Z,23.18
2022-07-26T23:00:19.188Z,23.18
2022-07-26T23:02:47.827Z,23.17
2022-07-26T23:05:16.717Z,23.16
2022-07-26T23:07:47.966Z,23.16
2022-07-26T23:10:16.319Z,23.16
2022-07-26T23:12:44.111Z,23.16
2022-07-26T23:15:12.219Z,23.13
2022-07-26T23:17:41.295Z,23.15
2022-07-26T23:20:10.516Z,23.14
2022-07-26T23:22:38.357Z,23.13
2022-07-26T23:25:06.907Z,23.13
2022-07-26T23:27:35.000Z,23.14
2022-07-26T23:30:02.730Z,23.11
2022-07-26T23:32:30.415Z,23.11
2022-07-26T23:34:59.570Z,23.09
2022-07-26T23:37:27.599Z,23.11
2022-07-26T23:39:55.294Z,23.11
2022-07-26T23:42:23.111Z,23.11
2022-07-26T23:44:50.840Z,23.12
2022-07-26T23:47:18.604Z,23.09
2022-07-26T23:49:46.343Z,23.11
2022-07-26T23:52:15.461Z,23.09
2022-07-26T23:54:43.210Z,23.09
2022-07-26T23:57:10.979Z,23.06
2022-07-26T23:59:38.690Z,23.06
